Saratoga, California
Current Conditions -  °F | °C
As of 5:53 PM on Monday 20 Oct 2014 (Local Time) from KSJC Reporting Station
Scattered Clouds Scattered Clouds  
Wind Chill: 64°   Ceiling: Unl
Heat Index: 64°   Visibility: 10mi
Dew Point: 54°   Wind: 3mph
Humidity: 70%   Direction: NA
Pressure: 29.98"   Gusts: NA
Location:  37.27°N, 122.01°W
Report Text: KSJC 210053Z VRB03KT 10SM FEW010 SCT038 SCT060 18/12 A2998 RMK AO2 SLP151 T01780122
Loading
Personal Weather Stations






























Interactive Weather Map
Tropical Storm Tracking
New forecast layout! Learn more

10-Day Weather Forecast

Advertisements
Track Severe Weather on mobile